Time;durP1;ratioP1;P1;durP2;ratioP2;P2;SDS_P1;SDS_P2;PMS_P1;PMS_P2;Temp;Humidity;BMP_temperature;BMP_pressure;BME280_temperature;BME280_humidity;BME280_pressure;Samples;Min_cycle;Max_cycle;Signal;HPM_P1;HPM_P2
2023/04/26 00:00:12;;;;;;;21.77;20.38;;;;;;;;;;5075515;28;20234;-77
2023/04/26 00:02:39;;;;;;;20.67;19.58;;;;;;;;;;5075084;28;20240;-78
2023/04/26 00:05:07;;;;;;;22.55;21.17;;;;;;;;;;5077005;28;20215;-77
2023/04/26 00:07:36;;;;;;;22.00;20.60;;;;;;;;;;5074859;28;20234;-78
2023/04/26 00:10:03;;;;;;;22.30;20.67;;;;;;;;;;5079431;28;20230;-78
2023/04/26 00:12:32;;;;;;;21.58;20.15;;;;;;;;;;5079332;28;20191;-78
2023/04/26 00:14:59;;;;;;;21.75;20.42;;;;;;;;;;5077992;28;20270;-78
2023/04/26 00:17:26;;;;;;;21.80;20.50;;;;;;;;;;5077210;28;20197;-78
2023/04/26 00:19:53;;;;;;;24.40;22.08;;;;;;;;;;5077230;28;20230;-78
2023/04/26 00:22:20;;;;;;;22.10;20.48;;;;;;;;;;5078036;28;20615;-78
2023/04/26 00:24:47;;;;;;;21.77;20.25;;;;;;;;;;5077451;28;20230;-77
2023/04/26 00:27:14;;;;;;;21.95;20.45;;;;;;;;;;5076531;28;20233;-78
2023/04/26 00:29:42;;;;;;;21.35;20.00;;;;;;;;;;5076755;28;20259;-78
2023/04/26 00:32:10;;;;;;;21.95;20.38;;;;;;;;;;5076403;28;20209;-78
2023/04/26 00:34:38;;;;;;;22.52;20.40;;;;;;;;;;5077811;28;20724;-78
2023/04/26 00:37:05;;;;;;;22.33;20.83;;;;;;;;;;5076545;28;20719;-78
2023/04/26 00:39:32;;;;;;;21.92;20.42;;;;;;;;;;5077374;28;20800;-78
2023/04/26 00:41:59;;;;;;;21.67;20.35;;;;;;;;;;5077896;28;20264;-78
2023/04/26 00:44:26;;;;;;;22.23;20.65;;;;;;;;;;5077829;28;20262;-78
2023/04/26 00:46:54;;;;;;;21.30;19.80;;;;;;;;;;5076288;28;20318;-78
2023/04/26 00:49:23;;;;;;;21.50;20.15;;;;;;;;;;5075858;28;20227;-78
2023/04/26 00:51:51;;;;;;;22.38;20.90;;;;;;;;;;5076912;28;20201;-78
2023/04/26 00:54:19;;;;;;;22.80;21.15;;;;;;;;;;5080628;28;20193;-78
2023/04/26 00:56:46;;;;;;;21.55;20.20;;;;;;;;;;5079502;28;20198;-78
2023/04/26 00:59:13;;;;;;;21.80;20.50;;;;;;;;;;5080092;28;20234;-78
2023/04/26 01:01:41;;;;;;;22.00;20.50;;;;;;;;;;5080226;28;20201;-78
2023/04/26 01:04:11;;;;;;;22.95;21.10;;;;;;;;;;5080773;28;20206;-78
2023/04/26 01:06:38;;;;;;;23.00;21.27;;;;;;;;;;5079980;28;20235;-78
2023/04/26 01:09:08;;;;;;;22.05;20.60;;;;;;;;;;5079626;28;20231;-78
2023/04/26 01:11:36;;;;;;;21.13;19.73;;;;;;;;;;5079888;28;20332;-78
2023/04/26 01:14:04;;;;;;;22.58;20.98;;;;;;;;;;5079472;28;20267;-78
2023/04/26 01:16:31;;;;;;;22.65;20.83;;;;;;;;;;5080274;28;20746;-78
2023/04/26 01:18:58;;;;;;;22.25;20.52;;;;;;;;;;5078018;28;20225;-78
2023/04/26 01:21:26;;;;;;;23.15;21.60;;;;;;;;;;5078770;28;20201;-78
2023/04/26 01:23:54;;;;;;;22.85;20.85;;;;;;;;;;5079606;28;20282;-78
2023/04/26 01:26:21;;;;;;;23.95;21.80;;;;;;;;;;5077512;28;20227;-77
2023/04/26 01:28:48;;;;;;;23.33;21.15;;;;;;;;;;5079109;28;20649;-78
2023/04/26 01:31:16;;;;;;;22.00;20.52;;;;;;;;;;5079136;28;20212;-77
2023/04/26 01:33:42;;;;;;;25.40;23.58;;;;;;;;;;5081312;28;20685;-78
2023/04/26 01:36:10;;;;;;;23.58;21.88;;;;;;;;;;5080418;28;20207;-78
2023/04/26 01:38:37;;;;;;;22.27;20.48;;;;;;;;;;5062044;28;20231;-78
2023/04/26 01:41:06;;;;;;;25.17;22.83;;;;;;;;;;5080223;28;20263;-78
2023/04/26 01:43:33;;;;;;;23.23;21.67;;;;;;;;;;5080745;28;20244;-78
2023/04/26 01:46:00;;;;;;;23.13;21.40;;;;;;;;;;5078835;28;20245;-78
2023/04/26 01:48:27;;;;;;;23.25;21.63;;;;;;;;;;5079442;28;20215;-78
2023/04/26 01:50:54;;;;;;;21.73;20.42;;;;;;;;;;5079136;28;20682;-78
2023/04/26 01:53:21;;;;;;;22.73;21.05;;;;;;;;;;5078146;28;20279;-77
2023/04/26 01:55:48;;;;;;;24.75;22.45;;;;;;;;;;5076597;28;20214;-77
2023/04/26 01:58:16;;;;;;;22.50;20.90;;;;;;;;;;5077410;28;20726;-78
2023/04/26 02:00:43;;;;;;;22.73;21.13;;;;;;;;;;5076964;28;20882;-77
2023/04/26 02:03:10;;;;;;;21.92;20.50;;;;;;;;;;5076749;28;20235;-77
2023/04/26 02:05:38;;;;;;;24.88;22.92;;;;;;;;;;5075738;28;20202;-77
2023/04/26 02:08:05;;;;;;;23.08;21.33;;;;;;;;;;5077371;28;20634;-78
2023/04/26 02:10:32;;;;;;;25.38;22.85;;;;;;;;;;5079354;28;20308;-78
2023/04/26 02:12:59;;;;;;;22.92;21.02;;;;;;;;;;5081730;28;20203;-78
2023/04/26 02:15:28;;;;;;;21.67;20.15;;;;;;;;;;5081167;28;20239;-77
2023/04/26 02:17:55;;;;;;;23.17;21.20;;;;;;;;;;5080774;28;20559;-78
2023/04/26 02:20:22;;;;;;;23.70;21.50;;;;;;;;;;5079613;28;20232;-77
2023/04/26 02:22:49;;;;;;;22.70;21.00;;;;;;;;;;5080115;28;20290;-78
2023/04/26 02:25:16;;;;;;;25.38;22.83;;;;;;;;;;5080134;28;20259;-78
2023/04/26 02:27:43;;;;;;;22.85;21.17;;;;;;;;;;5080625;28;20243;-77
2023/04/26 02:30:11;;;;;;;21.17;19.70;;;;;;;;;;5081499;28;20233;-78
2023/04/26 02:32:40;;;;;;;22.95;21.30;;;;;;;;;;5079135;28;20615;-78
2023/04/26 02:35:07;;;;;;;23.20;21.50;;;;;;;;;;5079487;28;20277;-78
2023/04/26 02:37:34;;;;;;;23.45;21.23;;;;;;;;;;5077220;28;20701;-78
2023/04/26 02:40:02;;;;;;;23.30;21.70;;;;;;;;;;5078592;28;20347;-77
2023/04/26 02:42:29;;;;;;;24.17;22.48;;;;;;;;;;5079179;28;20208;-78
2023/04/26 02:44:56;;;;;;;22.88;21.42;;;;;;;;;;5077744;28;20726;-77
2023/04/26 02:47:23;;;;;;;22.60;21.30;;;;;;;;;;5077555;28;20228;-77
2023/04/26 02:49:52;;;;;;;23.77;21.95;;;;;;;;;;5076736;28;20263;-77
2023/04/26 02:52:19;;;;;;;23.58;21.63;;;;;;;;;;5077771;28;20271;-78
2023/04/26 02:54:46;;;;;;;23.13;21.65;;;;;;;;;;5077560;28;20201;-77
2023/04/26 02:57:13;;;;;;;22.85;21.35;;;;;;;;;;5077185;28;20669;-78
2023/04/26 02:59:40;;;;;;;23.27;21.33;;;;;;;;;;5076405;28;20247;-77
2023/04/26 03:02:07;;;;;;;23.25;21.75;;;;;;;;;;5077194;28;20205;-78
2023/04/26 03:04:35;;;;;;;24.48;22.30;;;;;;;;;;5076955;28;20680;-77
2023/04/26 03:07:04;;;;;;;24.02;22.00;;;;;;;;;;5076361;28;20230;-77
2023/04/26 03:09:31;;;;;;;22.75;21.27;;;;;;;;;;5080159;28;20222;-77
2023/04/26 03:11:58;;;;;;;23.52;21.90;;;;;;;;;;5076813;28;20210;-78
2023/04/26 03:14:25;;;;;;;23.65;21.58;;;;;;;;;;5076384;28;20213;-78
2023/04/26 03:16:53;;;;;;;24.88;22.65;;;;;;;;;;5074884;28;20680;-78
2023/04/26 03:19:20;;;;;;;21.80;20.50;;;;;;;;;;5075302;28;20290;-77
2023/04/26 03:21:47;;;;;;;21.90;20.60;;;;;;;;;;5075530;28;20197;-77
2023/04/26 03:24:15;;;;;;;22.65;20.95;;;;;;;;;;5075539;28;20263;-78
2023/04/26 03:26:42;;;;;;;23.98;22.20;;;;;;;;;;5079516;28;20252;-78
2023/04/26 03:29:11;;;;;;;21.88;20.25;;;;;;;;;;5075294;28;20226;-77
2023/04/26 03:31:38;;;;;;;22.58;20.83;;;;;;;;;;5074907;28;20216;-77
2023/04/26 03:34:05;;;;;;;22.60;21.15;;;;;;;;;;5074411;28;20196;-77
2023/04/26 03:36:40;;;;;;;22.23;20.48;;;;;;;;;;5090109;28;20509;-77
2023/04/26 03:39:07;;;;;;;21.23;19.83;;;;;;;;;;5091000;28;20222;-76
2023/04/26 03:41:35;;;;;;;22.67;21.08;;;;;;;;;;5090535;28;20205;-77
2023/04/26 03:44:02;;;;;;;22.70;20.90;;;;;;;;;;5090925;28;20670;-77
2023/04/26 03:46:29;;;;;;;21.58;20.17;;;;;;;;;;5090443;28;20202;-77
2023/04/26 03:48:56;;;;;;;21.60;20.25;;;;;;;;;;5090663;28;20222;-76
2023/04/26 03:51:23;;;;;;;23.63;21.88;;;;;;;;;;5093536;28;20205;-77
2023/04/26 03:53:51;;;;;;;21.77;20.25;;;;;;;;;;5091581;28;20230;-77
2023/04/26 03:56:18;;;;;;;21.73;20.20;;;;;;;;;;5091392;28;20248;-77
2023/04/26 03:58:47;;;;;;;22.52;20.95;;;;;;;;;;5091740;28;20222;-77
2023/04/26 04:01:14;;;;;;;22.85;21.30;;;;;;;;;;5093071;28;20210;-76
2023/04/26 04:03:41;;;;;;;23.58;21.83;;;;;;;;;;5090918;28;20246;-76
2023/04/26 04:06:08;;;;;;;25.10;22.50;;;;;;;;;;5089793;28;20202;-76
2023/04/26 04:08:35;;;;;;;22.70;21.05;;;;;;;;;;5089232;28;20701;-77
2023/04/26 04:11:03;;;;;;;23.20;21.58;;;;;;;;;;5090428;28;20257;-76
2023/04/26 04:13:31;;;;;;;23.20;21.70;;;;;;;;;;5090148;28;20228;-77
2023/04/26 04:15:57;;;;;;;23.27;21.40;;;;;;;;;;5089415;28;20222;-77
2023/04/26 04:18:25;;;;;;;24.52;22.63;;;;;;;;;;5089735;28;20209;-77
2023/04/26 04:20:52;;;;;;;23.83;21.85;;;;;;;;;;5090783;28;20214;-76
2023/04/26 04:23:19;;;;;;;22.83;21.33;;;;;;;;;;5089598;28;20202;-76
2023/04/26 04:25:47;;;;;;;24.98;22.98;;;;;;;;;;5089415;28;20206;-77
2023/04/26 04:28:16;;;;;;;22.58;20.88;;;;;;;;;;5089959;28;20305;-77
2023/04/26 04:30:45;;;;;;;26.20;23.70;;;;;;;;;;5092456;28;20577;-77
2023/04/26 04:33:13;;;;;;;22.35;20.92;;;;;;;;;;5100264;28;20241;-77
2023/04/26 04:35:42;;;;;;;25.30;23.17;;;;;;;;;;5089556;28;20751;-77
2023/04/26 04:38:09;;;;;;;23.92;22.35;;;;;;;;;;5089485;28;20689;-77
2023/04/26 04:40:37;;;;;;;22.98;21.25;;;;;;;;;;5092716;28;20222;-77
2023/04/26 04:43:03;;;;;;;23.98;22.27;;;;;;;;;;5091401;28;20207;-77
2023/04/26 04:45:32;;;;;;;25.20;22.92;;;;;;;;;;5089518;28;20206;-77
2023/04/26 04:47:59;;;;;;;25.08;23.13;;;;;;;;;;5076385;28;20214;-77
2023/04/26 04:50:27;;;;;;;23.20;21.45;;;;;;;;;;5076947;28;20277;-76
2023/04/26 04:52:54;;;;;;;23.88;21.85;;;;;;;;;;5078882;28;20240;-76
2023/04/26 04:55:21;;;;;;;22.95;21.55;;;;;;;;;;5077409;28;21009;-76
2023/04/26 04:57:48;;;;;;;24.20;22.42;;;;;;;;;;5075606;28;20557;-76
2023/04/26 05:00:15;;;;;;;23.70;21.98;;;;;;;;;;5075853;28;20226;-76
2023/04/26 05:02:44;;;;;;;24.42;22.05;;;;;;;;;;5077317;28;20649;-76
2023/04/26 05:05:12;;;;;;;23.00;21.33;;;;;;;;;;5076593;28;20211;-76
2023/04/26 05:07:39;;;;;;;23.98;21.63;;;;;;;;;;5075428;28;20220;-76
2023/04/26 05:10:06;;;;;;;23.63;21.80;;;;;;;;;;5075654;28;20231;-76
2023/04/26 05:12:34;;;;;;;22.75;21.15;;;;;;;;;;5075991;28;20255;-76
2023/04/26 05:15:01;;;;;;;24.00;22.15;;;;;;;;;;5075997;28;20223;-75
2023/04/26 05:17:29;;;;;;;22.60;21.20;;;;;;;;;;5075159;28;20260;-76
2023/04/26 05:19:58;;;;;;;23.00;21.27;;;;;;;;;;5074602;28;20219;-76
2023/04/26 05:22:25;;;;;;;24.05;22.25;;;;;;;;;;5077543;28;20264;-76
2023/04/26 05:24:52;;;;;;;23.10;21.38;;;;;;;;;;5075508;28;20279;-76
2023/04/26 05:27:19;;;;;;;24.88;23.17;;;;;;;;;;5075229;28;20214;-76
2023/04/26 05:29:46;;;;;;;22.85;21.35;;;;;;;;;;5075468;28;20219;-76
2023/04/26 05:32:13;;;;;;;25.30;23.40;;;;;;;;;;5075663;28;20206;-76
2023/04/26 05:34:40;;;;;;;23.58;21.88;;;;;;;;;;5075472;28;20268;-76
2023/04/26 05:37:08;;;;;;;24.38;22.38;;;;;;;;;;5074024;28;20703;-76
2023/04/26 05:39:35;;;;;;;23.95;22.20;;;;;;;;;;5075128;28;20230;-76
2023/04/26 05:42:02;;;;;;;24.38;22.38;;;;;;;;;;5075022;28;20217;-76
2023/04/26 05:44:29;;;;;;;24.63;22.75;;;;;;;;;;5075054;28;20226;-76
2023/04/26 05:46:56;;;;;;;23.80;22.20;;;;;;;;;;5074466;28;20199;-76
2023/04/26 05:49:23;;;;;;;24.38;22.27;;;;;;;;;;5074873;28;20223;-75
2023/04/26 05:51:50;;;;;;;24.77;22.92;;;;;;;;;;5075233;28;20679;-76
2023/04/26 05:54:19;;;;;;;23.75;21.83;;;;;;;;;;5074987;28;20200;-76
2023/04/26 05:56:46;;;;;;;24.67;22.63;;;;;;;;;;5074368;28;20261;-76
2023/04/26 05:59:13;;;;;;;24.65;22.65;;;;;;;;;;5073285;28;20223;-76
2023/04/26 06:01:40;;;;;;;24.23;22.58;;;;;;;;;;5074001;28;20218;-76
2023/04/26 06:04:07;;;;;;;23.60;22.10;;;;;;;;;;5074823;28;20625;-76
2023/04/26 06:06:34;;;;;;;25.15;23.10;;;;;;;;;;5073871;28;20208;-76
2023/04/26 06:09:01;;;;;;;24.38;22.58;;;;;;;;;;5076981;28;20223;-80
2023/04/26 06:11:30;;;;;;;23.88;22.27;;;;;;;;;;5079431;28;20329;-77
2023/04/26 06:13:57;;;;;;;24.15;22.20;;;;;;;;;;5076460;28;20616;-82
2023/04/26 06:16:24;;;;;;;24.02;22.13;;;;;;;;;;5075243;28;20281;-76
2023/04/26 06:18:51;;;;;;;23.33;21.73;;;;;;;;;;5060713;28;20227;-83
2023/04/26 06:21:18;;;;;;;22.70;21.20;;;;;;;;;;5058694;28;20544;-82
2023/04/26 06:23:45;;;;;;;24.25;22.38;;;;;;;;;;5067127;28;20211;-77
2023/04/26 06:26:12;;;;;;;23.83;21.85;;;;;;;;;;5074203;28;20656;-77
2023/04/26 06:28:40;;;;;;;23.60;22.08;;;;;;;;;;5075428;28;20292;-77
2023/04/26 06:31:07;;;;;;;21.85;20.55;;;;;;;;;;5077665;28;20201;-78
2023/04/26 06:33:35;;;;;;;26.98;22.10;;;;;;;;;;5078995;28;20215;-77
2023/04/26 06:36:02;;;;;;;22.30;20.80;;;;;;;;;;5078799;28;20261;-77
2023/04/26 06:38:29;;;;;;;24.30;22.00;;;;;;;;;;5076283;28;20211;-76
2023/04/26 06:40:56;;;;;;;24.50;22.42;;;;;;;;;;5077457;28;20248;-77
2023/04/26 06:43:23;;;;;;;21.98;20.25;;;;;;;;;;5077643;28;20211;-77
2023/04/26 06:45:51;;;;;;;23.58;21.65;;;;;;;;;;5076117;28;20242;-80
2023/04/26 06:48:18;;;;;;;23.15;21.50;;;;;;;;;;5075363;28;20725;-81
2023/04/26 06:50:45;;;;;;;22.60;21.05;;;;;;;;;;5065666;28;20263;-78
2023/04/26 06:53:12;;;;;;;24.23;22.48;;;;;;;;;;5068402;28;20204;-82
2023/04/26 06:55:39;;;;;;;23.40;21.27;;;;;;;;;;5086244;28;20215;-79
2023/04/26 06:58:06;;;;;;;23.20;21.42;;;;;;;;;;5076501;28;20581;-89
2023/04/26 07:00:33;;;;;;;23.13;20.90;;;;;;;;;;5078186;28;20223;-86
2023/04/26 07:03:02;;;;;;;24.42;22.45;;;;;;;;;;5077573;28;20204;-84
2023/04/26 07:05:29;;;;;;;24.33;22.33;;;;;;;;;;5074299;28;20234;-83
2023/04/26 07:07:56;;;;;;;23.80;22.20;;;;;;;;;;5075015;28;20211;-83
2023/04/26 07:10:24;;;;;;;23.58;21.88;;;;;;;;;;5076151;28;20296;-82
2023/04/26 07:12:51;;;;;;;22.95;21.13;;;;;;;;;;5074916;28;20253;-81
2023/04/26 07:15:18;;;;;;;24.50;22.60;;;;;;;;;;5075307;28;20999;-82
2023/04/26 07:17:46;;;;;;;22.25;20.85;;;;;;;;;;5074264;28;20277;-82
2023/04/26 07:20:18;;;;;;;22.92;21.20;;;;;;;;;;5074983;28;20277;-82
2023/04/26 07:22:45;;;;;;;24.08;20.88;;;;;;;;;;5074824;28;20188;-82
2023/04/26 07:25:12;;;;;;;22.23;20.40;;;;;;;;;;5076680;28;20207;-82
2023/04/26 07:27:39;;;;;;;23.02;21.30;;;;;;;;;;5074432;28;20199;-82
2023/04/26 07:30:07;;;;;;;22.02;20.63;;;;;;;;;;5077228;28;20306;-82
2023/04/26 07:32:35;;;;;;;22.85;21.00;;;;;;;;;;5077066;28;20243;-81
2023/04/26 07:35:03;;;;;;;21.92;20.63;;;;;;;;;;5076032;28;20217;-82
2023/04/26 07:37:31;;;;;;;22.75;21.15;;;;;;;;;;5075581;28;20610;-81
2023/04/26 07:39:58;;;;;;;21.30;19.98;;;;;;;;;;5074361;28;20211;-82
2023/04/26 07:42:25;;;;;;;23.52;21.80;;;;;;;;;;5074714;28;20261;-81
2023/04/26 07:44:52;;;;;;;21.95;20.30;;;;;;;;;;5074849;28;20211;-82
2023/04/26 07:47:20;;;;;;;23.95;21.48;;;;;;;;;;5073609;28;20272;-82
2023/04/26 07:49:47;;;;;;;19.95;18.85;;;;;;;;;;5075152;28;20220;-81
2023/04/26 07:52:13;;;;;;;21.48;20.15;;;;;;;;;;5074395;28;20229;-81
2023/04/26 07:54:42;;;;;;;23.65;22.05;;;;;;;;;;5074806;28;20253;-82
2023/04/26 07:57:09;;;;;;;24.80;22.52;;;;;;;;;;5073522;28;20223;-83
2023/04/26 07:59:36;;;;;;;24.17;21.98;;;;;;;;;;5075397;28;20223;-82
2023/04/26 08:02:03;;;;;;;21.30;20.00;;;;;;;;;;5074456;28;20199;-82
2023/04/26 08:04:32;;;;;;;20.98;19.92;;;;;;;;;;5074985;28;20276;-82
2023/04/26 08:07:00;;;;;;;24.20;22.75;;;;;;;;;;5073989;28;20679;-81
2023/04/26 08:09:27;;;;;;;24.13;22.10;;;;;;;;;;5073661;28;20787;-81
2023/04/26 08:11:55;;;;;;;23.52;21.65;;;;;;;;;;5074595;28;20253;-81
2023/04/26 08:14:22;;;;;;;21.75;20.15;;;;;;;;;;5074249;28;20195;-81
2023/04/26 08:16:50;;;;;;;20.63;19.52;;;;;;;;;;5073862;28;20224;-79
2023/04/26 08:19:17;;;;;;;21.55;20.35;;;;;;;;;;5074233;28;20234;-81
2023/04/26 08:21:44;;;;;;;21.25;20.08;;;;;;;;;;5076061;28;20215;-81
2023/04/26 08:24:11;;;;;;;21.27;20.08;;;;;;;;;;5078520;28;20655;-81
2023/04/26 08:26:38;;;;;;;22.15;20.85;;;;;;;;;;5077537;28;20261;-81
2023/04/26 08:29:07;;;;;;;22.55;21.10;;;;;;;;;;5077978;28;20269;-81
2023/04/26 08:31:35;;;;;;;22.35;21.08;;;;;;;;;;5077970;28;20710;-81
2023/04/26 08:34:02;;;;;;;22.40;21.30;;;;;;;;;;5077674;28;20205;-81
2023/04/26 08:36:29;;;;;;;24.10;22.17;;;;;;;;;;5077004;28;20485;-81
2023/04/26 08:38:56;;;;;;;22.13;20.80;;;;;;;;;;5077718;28;20235;-81
2023/04/26 08:41:24;;;;;;;20.95;19.85;;;;;;;;;;5077081;28;20298;-81
2023/04/26 08:43:52;;;;;;;21.05;19.80;;;;;;;;;;5077833;28;20271;-81
2023/04/26 08:46:21;;;;;;;22.03;20.63;;;;;;;;;;5076907;28;20692;-81
2023/04/26 08:48:50;;;;;;;22.02;20.73;;;;;;;;;;5077683;28;21023;-81
2023/04/26 08:51:17;;;;;;;21.92;20.75;;;;;;;;;;5077843;28;20261;-81
2023/04/26 08:53:45;;;;;;;23.90;21.98;;;;;;;;;;5079274;28;20215;-83
2023/04/26 08:56:12;;;;;;;23.10;21.90;;;;;;;;;;5081459;28;20234;-81
2023/04/26 08:58:40;;;;;;;23.90;22.27;;;;;;;;;;5081285;28;20227;-82
2023/04/26 09:01:07;;;;;;;22.57;20.83;;;;;;;;;;5080640;28;20431;-82
2023/04/26 09:03:35;;;;;;;22.13;20.80;;;;;;;;;;5080925;28;20449;-81
2023/04/26 09:06:03;;;;;;;21.17;19.98;;;;;;;;;;5080099;28;20434;-81
2023/04/26 09:08:30;;;;;;;22.80;21.20;;;;;;;;;;5079983;28;20546;-82
2023/04/26 09:10:57;;;;;;;22.70;21.40;;;;;;;;;;5078914;28;20974;-82
2023/04/26 09:13:28;;;;;;;22.55;20.73;;;;;;;;;;5079570;28;20861;-82
2023/04/26 09:15:55;;;;;;;21.52;19.88;;;;;;;;;;5079106;28;20666;-83
2023/04/26 09:18:23;;;;;;;23.08;21.58;;;;;;;;;;5077519;28;20625;-83
2023/04/26 09:21:03;;;;;;;22.25;20.63;;;;;;;;;;5076797;28;20211;-82
2023/04/26 09:23:31;;;;;;;22.48;21.17;;;;;;;;;;5077323;28;20180;-82
2023/04/26 09:26:13;;;;;;;22.35;20.85;;;;;;;;;;5076895;28;20253;-81
2023/04/26 09:28:41;;;;;;;21.73;20.20;;;;;;;;;;5077328;28;20216;-82
2023/04/26 09:31:08;;;;;;;20.88;19.77;;;;;;;;;;5076774;28;20444;-82
2023/04/26 09:33:35;;;;;;;21.90;20.43;;;;;;;;;;5077045;28;20211;-82
2023/04/26 09:36:13;;;;;;;21.80;20.47;;;;;;;;;;5076258;28;20446;-82
2023/04/26 09:38:42;;;;;;;22.07;20.70;;;;;;;;;;5076548;28;20469;-82
2023/04/26 09:41:10;;;;;;;22.90;21.40;;;;;;;;;;5079951;28;20466;-80
2023/04/26 09:43:38;;;;;;;20.87;19.77;;;;;;;;;;5078681;28;20451;-82
2023/04/26 09:46:06;;;;;;;21.33;20.13;;;;;;;;;;5076489;28;20420;-84
2023/04/26 09:48:33;;;;;;;22.93;21.43;;;;;;;;;;5077190;28;20498;-81
2023/04/26 09:51:09;;;;;;;20.70;19.60;;;;;;;;;;5076885;28;20413;-81
2023/04/26 09:53:39;;;;;;;22.07;20.77;;;;;;;;;;5077368;28;20434;-82
2023/04/26 09:56:07;;;;;;;20.60;19.50;;;;;;;;;;5077358;28;20438;-82
2023/04/26 09:58:35;;;;;;;20.13;19.05;;;;;;;;;;5077284;28;20470;-81
2023/04/26 10:01:02;;;;;;;22.13;20.93;;;;;;;;;;5077368;28;20207;-82
2023/04/26 10:03:31;;;;;;;21.30;20.10;;;;;;;;;;5076741;28;20441;-82
2023/04/26 10:05:58;;;;;;;21.10;20.03;;;;;;;;;;5075653;28;20203;-82
2023/04/26 10:08:25;;;;;;;19.60;18.60;;;;;;;;;;5076669;28;20612;-81
2023/04/26 10:10:54;;;;;;;21.13;19.87;;;;;;;;;;5075675;28;20966;-82
2023/04/26 10:13:21;;;;;;;22.30;20.50;;;;;;;;;;5076438;28;20838;-82
2023/04/26 10:15:48;;;;;;;22.17;20.70;;;;;;;;;;5076632;28;20914;-82
2023/04/26 10:18:16;;;;;;;19.80;18.80;;;;;;;;;;5077244;28;21028;-83
2023/04/26 10:20:46;;;;;;;21.60;20.20;;;;;;;;;;5076053;28;20487;-82
2023/04/26 10:23:18;;;;;;;21.10;19.70;;;;;;;;;;5076503;28;20426;-84
2023/04/26 10:25:45;;;;;;;22.98;21.58;;;;;;;;;;5078802;28;20460;-82
2023/04/26 10:28:14;;;;;;;22.33;20.83;;;;;;;;;;5079819;28;20196;-81
2023/04/26 10:30:56;;;;;;;22.77;21.23;;;;;;;;;;5079884;28;20498;-82
2023/04/26 10:33:25;;;;;;;21.23;19.93;;;;;;;;;;5076278;28;20620;-82
2023/04/26 10:36:08;;;;;;;22.47;20.63;;;;;;;;;;5094160;28;20432;-81
2023/04/26 10:38:35;;;;;;;23.50;21.70;;;;;;;;;;5092045;28;20489;-79
2023/04/26 10:41:22;;;;;;;21.30;20.17;;;;;;;;;;5086458;28;20438;-83
2023/04/26 10:43:51;;;;;;;20.83;19.60;;;;;;;;;;5078735;28;20456;-84
2023/04/26 10:46:34;;;;;;;22.57;21.03;;;;;;;;;;5070855;28;20443;-82
2023/04/26 10:49:12;;;;;;;21.70;20.50;;;;;;;;;;5059028;28;20437;-82
2023/04/26 10:51:39;;;;;;;23.90;21.90;;;;;;;;;;5058232;28;20269;-81
2023/04/26 10:54:06;;;;;;;22.17;20.53;;;;;;;;;;5058436;28;20455;-81
2023/04/26 10:56:52;;;;;;;23.50;21.47;;;;;;;;;;5056985;28;20462;-82
2023/04/26 10:59:24;;;;;;;22.50;21.20;;;;;;;;;;5059176;28;20457;-83
2023/04/26 11:01:52;;;;;;;24.50;22.70;;;;;;;;;;5055191;28;20849;-77
2023/04/26 11:04:20;;;;;;;24.00;22.23;;;;;;;;;;5056550;28;20801;-77
2023/04/26 11:06:50;;;;;;;21.80;20.50;;;;;;;;;;5054668;28;20532;-77
2023/04/26 11:09:36;;;;;;;22.20;20.90;;;;;;;;;;5056074;28;20516;-77
2023/04/26 11:12:05;;;;;;;23.87;22.27;;;;;;;;;;5054519;28;20926;-77
2023/04/26 11:14:34;;;;;;;23.37;21.60;;;;;;;;;;5053969;28;20520;-77
2023/04/26 11:17:03;;;;;;;22.90;21.50;;;;;;;;;;5055377;28;20837;-76
2023/04/26 11:19:30;;;;;;;24.53;23.00;;;;;;;;;;5054372;28;20553;-76
2023/04/26 11:21:57;;;;;;;21.97;20.57;;;;;;;;;;5053953;28;20446;-77
2023/04/26 11:24:27;;;;;;;23.80;21.90;;;;;;;;;;5053802;28;20417;-76
2023/04/26 11:26:54;;;;;;;23.30;21.60;;;;;;;;;;5053158;28;20471;-77
2023/04/26 11:29:21;;;;;;;23.10;21.73;;;;;;;;;;5069166;28;20491;-78
2023/04/26 11:31:53;;;;;;;23.43;21.73;;;;;;;;;;5072650;28;20486;-78
2023/04/26 11:34:23;;;;;;;24.57;22.53;;;;;;;;;;5072584;28;20494;-77
2023/04/26 11:36:51;;;;;;;23.93;22.23;;;;;;;;;;5071198;28;20508;-77
2023/04/26 11:39:20;;;;;;;23.87;22.07;;;;;;;;;;5070806;28;20492;-78
2023/04/26 11:41:47;;;;;;;23.80;22.27;;;;;;;;;;5071131;28;20426;-77
2023/04/26 11:44:18;;;;;;;24.03;22.33;;;;;;;;;;5070934;28;20501;-76
2023/04/26 11:46:46;;;;;;;23.40;21.60;;;;;;;;;;5070071;28;20456;-77
2023/04/26 11:49:15;;;;;;;23.87;22.07;;;;;;;;;;5070829;28;20452;-77
2023/04/26 11:51:42;;;;;;;23.97;22.33;;;;;;;;;;5072437;28;20405;-77
2023/04/26 11:54:09;;;;;;;23.73;21.83;;;;;;;;;;5073787;28;20470;-77
2023/04/26 11:56:36;;;;;;;22.27;20.87;;;;;;;;;;5079693;28;20842;-79
2023/04/26 11:59:03;;;;;;;22.93;21.13;;;;;;;;;;5078491;28;20502;-77
2023/04/26 12:01:30;;;;;;;22.93;20.90;;;;;;;;;;5080548;28;20446;-77
2023/04/26 12:03:58;;;;;;;23.87;22.07;;;;;;;;;;5076824;28;20515;-77
2023/04/26 12:06:32;;;;;;;21.40;20.10;;;;;;;;;;5078171;28;20523;-78
2023/04/26 12:09:04;;;;;;;21.60;20.27;;;;;;;;;;5077311;28;20475;-78
2023/04/26 12:11:31;;;;;;;22.43;21.00;;;;;;;;;;5076463;28;20528;-78
2023/04/26 12:14:00;;;;;;;23.07;21.50;;;;;;;;;;5078992;28;20472;-77
2023/04/26 12:16:27;;;;;;;22.70;21.10;;;;;;;;;;5078349;28;20451;-77
2023/04/26 12:18:55;;;;;;;22.47;20.97;;;;;;;;;;5078754;28;20524;-77
2023/04/26 12:21:23;;;;;;;23.43;21.70;;;;;;;;;;5078517;28;20522;-76
2023/04/26 12:23:51;;;;;;;23.53;21.63;;;;;;;;;;5078248;28;20449;-77
2023/04/26 12:26:19;;;;;;;22.33;20.73;;;;;;;;;;5076192;28;20432;-78
2023/04/26 12:28:46;;;;;;;24.23;22.47;;;;;;;;;;5076193;28;20477;-77
2023/04/26 12:31:13;;;;;;;22.20;20.80;;;;;;;;;;5077947;28;20496;-77
2023/04/26 12:33:40;;;;;;;23.17;21.63;;;;;;;;;;5079332;28;20419;-77
2023/04/26 12:36:11;;;;;;;22.67;21.07;;;;;;;;;;5076633;28;20449;-77
2023/04/26 12:38:38;;;;;;;23.30;21.57;;;;;;;;;;5076461;28;20489;-77
2023/04/26 12:41:06;;;;;;;23.10;21.50;;;;;;;;;;5078534;28;20419;-77
2023/04/26 12:43:33;;;;;;;22.97;21.47;;;;;;;;;;5080249;28;20424;-82
2023/04/26 12:46:01;;;;;;;24.00;22.50;;;;;;;;;;5079084;28;20420;-76
2023/04/26 12:48:28;;;;;;;23.40;21.67;;;;;;;;;;5086745;28;20451;-77
2023/04/26 12:50:55;;;;;;;22.57;20.77;;;;;;;;;;5079357;28;20774;-76
2023/04/26 12:53:22;;;;;;;23.33;21.93;;;;;;;;;;5075787;28;20421;-76
2023/04/26 12:55:49;;;;;;;24.07;22.47;;;;;;;;;;5077339;28;20469;-76
2023/04/26 12:58:20;;;;;;;23.00;21.50;;;;;;;;;;5079412;28;20534;-76
2023/04/26 13:00:50;;;;;;;22.47;20.90;;;;;;;;;;5082274;28;20424;-76
2023/04/26 13:03:17;;;;;;;21.83;20.43;;;;;;;;;;5079715;28;20519;-77
2023/04/26 13:05:46;;;;;;;24.03;22.33;;;;;;;;;;5076638;28;20524;-77
2023/04/26 13:08:13;;;;;;;22.37;20.83;;;;;;;;;;5075417;28;20469;-77
2023/04/26 13:10:40;;;;;;;22.90;21.00;;;;;;;;;;5078969;28;20431;-76
2023/04/26 13:13:07;;;;;;;109.32;60.50;;;;;;;;;;5083521;28;20527;-77
2023/04/26 13:15:36;;;;;;;22.13;20.70;;;;;;;;;;5080867;28;20207;-76
2023/04/26 13:18:03;;;;;;;424.30;150.35;;;;;;;;;;5076051;28;20464;-76
2023/04/26 13:20:30;;;;;;;441.25;168.18;;;;;;;;;;5074972;28;20273;-76
2023/04/26 13:22:57;;;;;;;22.23;20.73;;;;;;;;;;5075720;28;20625;-75
2023/04/26 13:25:24;;;;;;;21.83;20.47;;;;;;;;;;5076989;28;20484;-76
2023/04/26 13:27:52;;;;;;;22.20;20.70;;;;;;;;;;5075001;28;20454;-75
2023/04/26 13:30:22;;;;;;;22.37;20.80;;;;;;;;;;5078773;28;20560;-84
2023/04/26 13:32:51;;;;;;;24.07;22.13;;;;;;;;;;5079642;28;20455;-76
2023/04/26 13:35:18;;;;;;;22.07;20.67;;;;;;;;;;5078766;28;20473;-76
2023/04/26 13:37:46;;;;;;;23.53;21.90;;;;;;;;;;5090853;28;20501;-76
2023/04/26 13:40:13;;;;;;;21.17;19.83;;;;;;;;;;5072968;28;20524;-76
2023/04/26 13:42:41;;;;;;;25.70;24.00;;;;;;;;;;5074269;28;20450;-75
2023/04/26 13:45:09;;;;;;;25.47;23.80;;;;;;;;;;5073936;28;20412;-76
2023/04/26 13:47:36;;;;;;;24.30;22.67;;;;;;;;;;5072377;28;20422;-76
2023/04/26 13:50:05;;;;;;;25.20;23.30;;;;;;;;;;5073998;28;20486;-76
2023/04/26 13:52:32;;;;;;;24.90;23.00;;;;;;;;;;5073819;28;20502;-76
2023/04/26 13:54:59;;;;;;;25.00;23.20;;;;;;;;;;5072005;28;20448;-76
2023/04/26 13:57:26;;;;;;;23.93;22.40;;;;;;;;;;5072011;28;20425;-75
2023/04/26 13:59:53;;;;;;;23.40;21.83;;;;;;;;;;5072329;28;20952;-76
2023/04/26 14:02:23;;;;;;;23.10;21.70;;;;;;;;;;5071595;28;20454;-76
2023/04/26 14:04:50;;;;;;;22.77;21.27;;;;;;;;;;5072695;28;20433;-75
2023/04/26 14:07:18;;;;;;;24.20;22.70;;;;;;;;;;5072060;28;20486;-75
2023/04/26 14:09:46;;;;;;;70.37;63.07;;;;;;;;;;5073468;28;20436;-76
2023/04/26 14:12:13;;;;;;;23.93;22.03;;;;;;;;;;5072325;28;20473;-76
2023/04/26 14:14:40;;;;;;;23.30;21.57;;;;;;;;;;5081836;28;20510;-76
2023/04/26 14:17:07;;;;;;;23.30;21.57;;;;;;;;;;5078913;28;20447;-76
2023/04/26 14:19:34;;;;;;;25.00;23.30;;;;;;;;;;5074580;28;20751;-76